Time;durP1;ratioP1;P1;durP2;ratioP2;P2;SDS_P1;SDS_P2;PMS_P1;PMS_P2;Temp;Humidity;BMP_temperature;BMP_pressure;BME280_temperature;BME280_humidity;BME280_pressure;Samples;Min_cycle;Max_cycle;Signal;HPM_P1;HPM_P2
2024/04/09 00:00:55;;;;;;;8.50;1.93;;;10.40;99.90;;;;;;8158908;29;20037;-85
2024/04/09 00:05:08;;;;;;;8.07;2.22;;;10.30;99.90;;;;;;8160416;29;20051;-85
2024/04/09 00:09:23;;;;;;;6.75;2.38;;;10.30;99.90;;;;;;8180609;29;20067;-84
2024/04/09 00:13:41;;;;;;;14.13;2.42;;;10.30;99.90;;;;;;8162433;29;20091;-84
2024/04/09 00:22:40;;;;;;;;;;;;;;;;;;;;;
2024/04/09 00:32:31;;;;;;;11.63;2.78;;;10.30;99.90;;;;;;8204320;28;20037;-85
2024/04/09 00:36:35;;;;;;;14.52;2.78;;;10.20;99.90;;;;;;8161059;29;20047;-84
2024/04/09 00:41:31;;;;;;;13.25;2.60;;;10.20;99.90;;;;;;8181987;29;20032;-84
2024/04/09 00:46:24;;;;;;;13.05;2.85;;;10.20;99.90;;;;;;8177308;29;20035;-85
2024/04/09 00:50:25;;;;;;;6.10;2.33;;;10.20;99.90;;;;;;8158871;29;20099;-84
2024/04/09 00:55:20;;;;;;;11.90;2.40;;;10.20;99.90;;;;;;8172220;29;20038;-84
2024/04/09 00:59:35;;;;;;;9.32;2.42;;;10.20;99.90;;;;;;8015777;29;20069;-85
2024/04/09 01:04:39;;;;;;;11.63;2.72;;;10.20;99.90;;;;;;8018630;29;20030;-85
2024/04/09 01:20:00;;;;;;;16.90;2.22;;;10.00;99.90;;;;;;8087939;29;20048;-85
2024/04/09 01:24:02;;;;;;;11.38;2.47;;;9.90;99.90;;;;;;8405608;23;20080;-85
2024/04/09 01:28:14;;;;;;;6.82;2.40;;;10.00;99.90;;;;;;8229642;28;20039;-85
2024/04/09 01:42:35;;;;;;;7.53;2.42;;;10.00;99.90;;;;;;8205508;28;20736;-85
2024/04/09 01:46:37;;;;;;;7.68;1.88;;;10.00;99.90;;;;;;9077906;23;20143;-84
2024/04/09 01:50:40;;;;;;;6.85;2.17;;;10.10;99.90;;;;;;8193157;28;20087;-85
2024/04/09 02:01:00;;;;;;;5.45;2.00;;;10.10;99.90;;;;;;8118687;29;20120;-85
2024/04/09 02:14:51;;;;;;;8.88;2.60;;;10.30;99.90;;;;;;8216903;23;20059;-85
2024/04/09 02:19:46;;;;;;;3.80;1.85;;;10.10;99.90;;;;;;8184288;28;20076;-85
2024/04/09 02:23:59;;;;;;;7.30;1.98;;;9.80;99.90;;;;;;8232908;23;20036;-93
2024/04/09 02:28:08;;;;;;;8.40;2.40;;;9.90;99.90;;;;;;8189169;29;20080;-92
2024/04/09 02:32:27;;;;;;;6.10;2.20;;;9.70;99.90;;;;;;8193282;28;20111;-94
2024/04/09 02:36:39;;;;;;;6.15;2.20;;;9.60;99.90;;;;;;8208333;28;20019;-93
2024/04/09 02:41:17;;;;;;;11.45;2.22;;;9.70;99.90;;;;;;8204004;28;20051;-92
2024/04/09 02:45:26;;;;;;;8.85;1.85;;;9.80;99.90;;;;;;8182781;28;20036;-92
2024/04/09 02:50:15;;;;;;;5.72;1.95;;;9.90;99.90;;;;;;8189269;28;20050;-94
2024/04/09 02:54:20;;;;;;;8.57;1.73;;;10.00;99.90;;;;;;8207334;28;20043;-95
2024/04/09 02:58:21;;;;;;;4.63;1.70;;;10.20;99.90;;;;;;8202146;23;20063;-82
2024/04/09 03:03:15;;;;;;;6.45;2.47;;;10.30;99.90;;;;;;8198414;28;20042;-85
2024/04/09 03:06:57;;;;;;;5.05;1.63;;;10.10;99.90;;;;;;8176735;29;20103;-85
2024/04/09 03:11:18;;;;;;;5.50;1.90;;;10.10;99.90;;;;;;8186642;29;20043;-85
2024/04/09 03:15:21;;;;;;;4.20;1.70;;;9.90;99.90;;;;;;8166974;29;20036;-85
2024/04/09 03:19:27;;;;;;;4.03;1.98;;;9.90;99.90;;;;;;8178611;29;20055;-85
2024/04/09 03:23:28;;;;;;;4.07;1.70;;;9.90;99.90;;;;;;8179502;29;20484;-84
2024/04/09 03:27:29;;;;;;;6.82;1.80;;;9.70;99.90;;;;;;8181407;29;20040;-84
2024/04/09 03:31:46;;;;;;;5.05;1.58;;;9.80;99.90;;;;;;8185095;29;20041;-84
2024/04/09 03:35:58;;;;;;;3.40;1.67;;;10.00;99.90;;;;;;8157908;29;20039;-85
2024/04/09 03:39:58;;;;;;;5.18;1.73;;;10.10;99.90;;;;;;8156490;29;20126;-85
2024/04/09 03:44:09;;;;;;;3.65;1.65;;;10.10;99.90;;;;;;8172464;29;20059;-84
2024/04/09 03:48:40;;;;;;;;;;;;;;;;;;;;;
2024/04/09 03:53:46;;;;;;;8.18;1.80;;;10.10;99.90;;;;;;8160453;29;20487;-84
2024/04/09 03:58:01;;;;;;;1.70;1.13;;;10.10;99.90;;;;;;8091487;29;20644;-86
2024/04/09 04:02:18;;;;;;;3.17;1.10;;;10.40;99.90;;;;;;8099953;29;20126;-87
2024/04/09 04:06:21;;;;;;;4.22;1.20;;;11.90;99.90;;;;;;8155807;29;20526;-87
2024/04/09 04:10:22;;;;;;;5.00;1.20;;;13.40;99.90;;;;;;8138649;29;20048;-88
2024/04/09 04:14:49;;;;;;;1.95;0.95;;;14.30;99.90;;;;;;8158662;29;20047;-87
2024/04/09 04:19:29;;;;;;;2.45;1.50;;;14.70;99.90;;;;;;8143918;29;20053;-84
2024/04/09 04:24:27;;;;;;;1.85;0.85;;;15.30;99.90;;;;;;8153669;29;20038;-85
2024/04/09 04:34:20;;;;;;;3.28;1.23;;;14.30;99.90;;;;;;8096986;29;20256;-88
2024/04/09 04:39:41;;;;;;;2.08;1.25;;;13.80;99.90;;;;;;8069978;29;20863;-85
2024/04/09 04:43:50;;;;;;;2.47;1.10;;;13.10;99.90;;;;;;8159288;29;20036;-85
2024/04/09 04:48:24;;;;;;;2.10;1.30;;;12.40;99.90;;;;;;8173207;28;20385;-85
2024/04/09 04:53:18;;;;;;;2.35;1.08;;;12.10;99.90;;;;;;8164969;29;20134;-85
2024/04/09 04:57:57;;;;;;;3.00;1.00;;;11.90;99.90;;;;;;8139437;29;20031;-85
2024/04/09 05:02:01;;;;;;;3.17;1.05;;;11.80;99.90;;;;;;8177418;29;20031;-84
2024/04/09 05:06:17;;;;;;;4.80;1.33;;;11.70;99.90;;;;;;8164339;29;20122;-85
2024/04/09 05:10:21;;;;;;;3.33;1.10;;;11.90;99.90;;;;;;8167446;29;20054;-85
2024/04/09 05:14:54;;;;;;;5.07;1.45;;;13.20;99.90;;;;;;8168112;29;20158;-84
2024/04/09 05:19:03;;;;;;;3.50;1.10;;;13.00;99.90;;;;;;8163768;29;20410;-85
2024/04/09 05:23:45;;;;;;;4.47;1.48;;;12.90;99.90;;;;;;8187045;29;20036;-85
2024/04/09 05:28:09;;;;;;;3.17;1.20;;;12.50;99.90;;;;;;8164386;29;20039;-87
2024/04/09 05:32:41;;;;;;;5.88;1.30;;;12.30;99.90;;;;;;8111319;29;20042;-87
2024/04/09 05:36:56;;;;;;;7.88;1.40;;;12.00;99.90;;;;;;8103847;29;20036;-87
2024/04/09 05:41:31;;;;;;;4.35;1.33;;;11.80;99.90;;;;;;8097886;29;20033;-85
2024/04/09 05:51:26;;;;;;;6.75;1.92;;;11.70;99.90;;;;;;8179167;29;20055;-85
2024/04/09 06:00:53;;;;;;;;;;;;;;;;;;;;;
2024/04/09 06:31:07;;;;;;;;;;;;;;;;;;;;;
2024/04/09 06:50:31;;;;;;;8.32;2.22;;;13.60;99.90;;;;;;8195947;23;20114;-86
2024/04/09 07:20:14;;;;;;;5.75;2.33;;;17.10;99.90;;;;;;8015586;29;20094;-85
2024/04/09 07:24:20;;;;;;;6.07;1.73;;;17.50;99.90;;;;;;8063303;28;20032;-85
2024/04/09 07:28:21;;;;;;;5.57;1.60;;;18.00;99.90;;;;;;8176565;28;20067;-85
2024/04/09 07:33:03;;;;;;;;;;;;;;;;;;;;;
2024/04/09 07:37:46;;;;;;;7.93;1.85;;;18.40;99.90;;;;;;8187067;28;20029;-86
2024/04/09 07:52:04;;;;;;;5.38;1.40;;;18.20;99.90;;;;;;8209087;28;20095;-86
2024/04/09 08:07:29;;;;;;;9.30;1.70;;;18.30;99.90;;;;;;8181448;28;20074;-86
2024/04/09 08:11:38;;;;;;;9.40;1.48;;;18.70;99.90;;;;;;8162570;28;20057;-86
2024/04/09 08:16:25;;;;;;;7.22;1.95;;;19.00;99.90;;;;;;8167469;28;20500;-86
2024/04/09 09:06:58;;;;;;;5.30;1.73;;;21.00;99.90;;;;;;8134653;28;20118;-86
2024/04/09 09:11:25;;;;;;;8.95;1.60;;;20.30;99.90;;;;;;8187062;28;20141;-85
2024/04/09 09:20:47;;;;;;;4.03;1.60;;;19.90;99.90;;;;;;8187015;28;20215;-85
2024/04/09 09:25:38;;;;;;;7.55;2.05;;;20.00;99.90;;;;;;8174167;29;20048;-86
2024/04/09 09:30:16;;;;;;;6.10;1.80;;;20.10;99.90;;;;;;8190033;28;20039;-86
2024/04/09 09:34:58;;;;;;;6.72;1.52;;;20.90;99.90;;;;;;8200986;28;20273;-86
2024/04/09 09:39:43;;;;;;;8.88;1.42;;;21.70;99.90;;;;;;8154678;28;20122;-86
2024/04/09 09:44:13;;;;;;;8.55;2.00;;;21.40;99.90;;;;;;8184028;28;20405;-85
2024/04/09 09:48:28;;;;;;;6.88;1.50;;;21.30;99.90;;;;;;8177038;23;20596;-86
2024/04/09 09:53:01;;;;;;;7.65;1.50;;;21.70;99.90;;;;;;8191726;28;20035;-86
2024/04/09 09:57:09;;;;;;;6.65;1.35;;;21.80;99.90;;;;;;8190262;28;20035;-85
2024/04/09 10:01:23;;;;;;;3.35;1.23;;;22.20;99.90;;;;;;8171178;29;20064;-87
2024/04/09 10:05:38;;;;;;;2.65;0.73;;;21.60;99.90;;;;;;8168899;29;20040;-86
2024/04/09 10:09:53;;;;;;;0.40;0.40;;;18.60;99.90;;;;;;8181425;29;20038;-89
2024/04/09 10:14:01;;;;;;;0.38;0.38;;;15.70;99.90;;;;;;8156293;29;20038;-89
2024/04/09 10:18:44;;;;;;;0.85;0.85;;;14.30;99.90;;;;;;8188493;23;20079;-87
2024/04/09 10:22:55;;;;;;;0.55;0.45;;;14.00;99.90;;;;;;8161958;29;20036;-86
2024/04/09 10:27:14;;;;;;;0.28;0.28;;;14.00;99.90;;;;;;8168724;29;20400;-87
2024/04/09 10:31:21;;;;;;;0.43;0.28;;;13.60;99.90;;;;;;8148511;29;20032;-87
2024/04/09 10:35:34;;;;;;;0.55;0.52;;;13.10;99.90;;;;;;8164815;29;20090;-86
2024/04/09 10:39:52;;;;;;;0.22;0.20;;;12.60;99.90;;;;;;8163360;29;20040;-86
2024/04/09 10:44:10;;;;;;;0.82;0.30;;;12.20;99.90;;;;;;8164228;29;20036;-86
2024/04/09 10:48:25;;;;;;;0.15;0.15;;;12.00;99.90;;;;;;8163720;29;20040;-87
2024/04/09 10:52:43;;;;;;;;;;;;;;;;;;;;;
2024/04/09 10:56:44;;;;;;;0.20;0.20;;;11.80;99.90;;;;;;8162626;29;20036;-86
2024/04/09 11:01:00;;;;;;;0.30;0.20;;;11.90;99.90;;;;;;8170599;29;20686;-86
2024/04/09 11:05:13;;;;;;;0.30;0.30;;;12.00;99.90;;;;;;8150792;29;20080;-86
2024/04/09 11:09:20;;;;;;;0.40;0.30;;;12.00;99.90;;;;;;8150525;29;20537;-86
2024/04/09 11:13:25;;;;;;;0.30;0.30;;;12.00;99.90;;;;;;8151492;29;20271;-86
2024/04/09 11:17:41;;;;;;;0.20;0.20;;;12.00;99.90;;;;;;8169305;29;20051;-87
2024/04/09 11:21:53;;;;;;;0.80;0.30;;;11.90;99.90;;;;;;8161322;29;20032;-85
2024/04/09 11:26:20;;;;;;;0.40;0.40;;;12.30;99.90;;;;;;8168363;29;20103;-86
2024/04/09 11:58:47;;;;;;;0.20;0.20;;;11.80;99.90;;;;;;8192634;28;20051;-84
2024/04/09 12:07:46;;;;;;;0.10;0.10;;;11.30;99.90;;;;;;8189789;29;20039;-84
2024/04/09 12:11:47;;;;;;;0.65;0.30;;;11.00;99.90;;;;;;8172919;29;20036;-84
2024/04/09 12:15:57;;;;;;;0.10;0.10;;;10.90;99.90;;;;;;8171962;29;20477;-85
2024/04/09 12:20:06;;;;;;;0.40;0.30;;;11.00;99.90;;;;;;8172784;29;20068;-85
2024/04/09 12:24:10;;;;;;;3.63;0.28;;;10.90;99.90;;;;;;8188191;29;20040;-84
2024/04/09 12:28:14;;;;;;;0.32;0.30;;;11.00;99.90;;;;;;8187330;29;20100;-83
2024/04/09 12:32:15;;;;;;;0.20;0.10;;;11.20;99.90;;;;;;8187817;29;20160;-84
2024/04/09 12:36:16;;;;;;;0.30;0.20;;;11.00;99.90;;;;;;8186539;29;20036;-84
2024/04/09 12:40:17;;;;;;;0.20;0.20;;;11.00;99.90;;;;;;8184692;29;20056;-84
2024/04/09 12:44:18;;;;;;;0.20;0.20;;;10.90;99.90;;;;;;8181794;29;20032;-83
2024/04/09 12:48:24;;;;;;;0.10;0.10;;;10.80;99.90;;;;;;8188265;29;20039;-84
2024/04/09 12:52:25;;;;;;;0.30;0.20;;;11.00;99.90;;;;;;8191043;29;20039;-84
2024/04/09 12:56:26;;;;;;;0.30;0.30;;;10.90;99.90;;;;;;8192078;29;20047;-83
2024/04/09 13:00:27;;;;;;;0.40;0.30;;;10.80;99.90;;;;;;8174705;29;20039;-83
2024/04/09 13:04:29;;;;;;;0.30;0.30;;;10.60;99.90;;;;;;8175632;29;20043;-84
2024/04/09 13:08:33;;;;;;;0.00;0.00;;;10.50;99.90;;;;;;8188293;29;20040;-83
2024/04/09 13:12:34;;;;;;;0.10;0.10;;;9.90;99.90;;;;;;8174677;29;20027;-83
2024/04/09 13:16:39;;;;;;;0.10;0.10;;;9.90;99.90;;;;;;8193639;29;20032;-82
2024/04/09 13:20:40;;;;;;;0.10;0.10;;;9.40;99.90;;;;;;8180401;29;20040;-85
2024/04/09 13:24:40;;;;;;;0.00;0.00;;;9.00;99.90;;;;;;8184366;29;20064;-83
2024/04/09 13:28:41;;;;;;;0.10;0.10;;;8.90;99.90;;;;;;8193688;29;20044;-82
2024/04/09 13:32:41;;;;;;;0.10;0.10;;;8.70;99.90;;;;;;8197678;29;20074;-82
2024/04/09 13:36:42;;;;;;;0.10;0.10;;;8.80;99.90;;;;;;8198061;29;20103;-83
2024/04/09 13:40:43;;;;;;;0.10;0.10;;;8.90;99.90;;;;;;8180825;29;20090;-82
2024/04/09 13:44:44;;;;;;;0.13;0.10;;;9.10;99.90;;;;;;8190251;29;20044;-83
2024/04/09 13:48:57;;;;;;;0.10;0.10;;;9.20;99.90;;;;;;8192426;29;20040;-82
2024/04/09 13:52:58;;;;;;;0.10;0.10;;;9.20;99.90;;;;;;8186982;29;20258;-83
2024/04/09 13:57:05;;;;;;;0.30;0.20;;;9.20;99.90;;;;;;8183801;29;20047;-83
2024/04/09 14:01:06;;;;;;;0.30;0.30;;;9.20;99.90;;;;;;8197442;29;20702;-83
2024/04/09 14:05:07;;;;;;;0.20;0.20;;;9.10;99.90;;;;;;8182062;29;20031;-83
2024/04/09 14:09:09;;;;;;;0.10;0.10;;;9.10;99.90;;;;;;8174533;29;20039;-83
2024/04/09 14:13:10;;;;;;;0.80;0.50;;;8.80;99.90;;;;;;8183919;29;20044;-82
2024/04/09 14:17:11;;;;;;;0.85;0.40;;;8.70;99.90;;;;;;8190018;29;20055;-82
2024/04/09 14:21:13;;;;;;;0.10;0.10;;;9.00;99.90;;;;;;8189620;29;20060;-83
2024/04/09 14:25:14;;;;;;;0.38;0.30;;;9.10;99.90;;;;;;8175784;29;20047;-83
2024/04/09 14:29:15;;;;;;;0.30;0.20;;;9.20;99.90;;;;;;8193459;29;20122;-83
2024/04/09 14:33:15;;;;;;;0.28;0.20;;;9.10;99.90;;;;;;8192999;29;20039;-82
2024/04/09 14:37:16;;;;;;;0.20;0.20;;;9.00;99.90;;;;;;8191600;29;20040;-83
2024/04/09 14:41:19;;;;;;;0.10;0.10;;;8.60;99.90;;;;;;8173918;29;20040;-83
2024/04/09 14:45:20;;;;;;;0.20;0.17;;;8.70;99.90;;;;;;8190167;29;20040;-83
2024/04/09 14:49:20;;;;;;;0.45;0.30;;;8.80;99.90;;;;;;8189956;29;20055;-82
2024/04/09 14:53:21;;;;;;;0.30;0.22;;;8.70;99.90;;;;;;8188131;29;20048;-83
2024/04/09 14:57:22;;;;;;;0.10;0.10;;;8.70;99.90;;;;;;8195388;29;20057;-83
2024/04/09 15:01:25;;;;;;;0.20;0.20;;;8.90;99.90;;;;;;8190910;29;20496;-83
2024/04/09 15:05:25;;;;;;;0.20;0.20;;;8.90;99.90;;;;;;8188356;29;20042;-83
2024/04/09 15:09:26;;;;;;;0.52;0.30;;;8.90;99.90;;;;;;8171616;29;20027;-83
2024/04/09 15:13:27;;;;;;;0.10;0.10;;;8.80;99.90;;;;;;8167040;29;20036;-84
2024/04/09 15:17:30;;;;;;;0.28;0.20;;;8.90;99.90;;;;;;8186628;29;20504;-83
2024/04/09 15:21:31;;;;;;;0.20;0.20;;;8.90;99.90;;;;;;8182722;29;20039;-84
2024/04/09 15:25:31;;;;;;;0.10;0.10;;;8.80;99.90;;;;;;8173129;29;20051;-83
2024/04/09 15:29:34;;;;;;;0.20;0.20;;;8.60;99.90;;;;;;8177980;29;20060;-83
2024/04/09 15:33:35;;;;;;;0.15;0.15;;;8.40;99.90;;;;;;8182652;29;20135;-83
2024/04/09 15:37:36;;;;;;;0.85;0.30;;;8.30;99.90;;;;;;8190338;29;20035;-83
2024/04/09 15:41:37;;;;;;;0.28;0.25;;;8.20;99.90;;;;;;8165583;29;20040;-82
2024/04/09 15:45:39;;;;;;;2.08;0.80;;;8.50;99.90;;;;;;8162811;29;20043;-87
2024/04/09 15:49:40;;;;;;;0.20;0.20;;;8.20;99.90;;;;;;8165559;29;20047;-88
2024/04/09 15:53:40;;;;;;;0.70;0.32;;;8.20;99.90;;;;;;8144973;29;20054;-88
2024/04/09 15:57:42;;;;;;;0.47;0.40;;;8.30;99.90;;;;;;8159687;29;20047;-88
2024/04/09 16:01:47;;;;;;;0.40;0.40;;;8.40;99.90;;;;;;8165771;29;20449;-87
2024/04/09 16:05:47;;;;;;;0.20;0.20;;;8.20;99.90;;;;;;8179887;23;20142;-85
2024/04/09 16:09:48;;;;;;;1.02;0.40;;;8.10;99.90;;;;;;8149684;29;20055;-85
2024/04/09 16:13:49;;;;;;;0.40;0.38;;;8.10;99.90;;;;;;8157715;29;20097;-86
2024/04/09 16:17:50;;;;;;;1.40;0.40;;;7.90;99.90;;;;;;8164690;29;20047;-85
2024/04/09 16:21:51;;;;;;;2.38;0.63;;;7.80;99.90;;;;;;8184265;28;20094;-85
2024/04/09 16:26:07;;;;;;;1.42;0.50;;;7.90;99.90;;;;;;8162627;29;20448;-86
2024/04/09 16:30:13;;;;;;;8.90;3.60;;;8.00;99.90;;;;;;8164282;29;20046;-86
2024/04/09 16:34:15;;;;;;;0.77;0.40;;;8.20;99.90;;;;;;8169399;29;20036;-86
2024/04/09 16:38:16;;;;;;;0.73;0.50;;;8.40;99.90;;;;;;8161969;29;20557;-87
2024/04/09 16:42:16;;;;;;;0.55;0.35;;;8.40;99.90;;;;;;8175515;29;20063;-87
2024/04/09 16:46:18;;;;;;;3.30;0.38;;;8.40;99.90;;;;;;8155341;29;20741;-87
2024/04/09 16:50:19;;;;;;;0.52;0.38;;;8.20;99.90;;;;;;8161495;29;20035;-87
2024/04/09 16:54:20;;;;;;;0.68;0.60;;;7.90;99.90;;;;;;8161999;29;20048;-87
2024/04/09 16:58:21;;;;;;;0.55;0.50;;;7.90;99.90;;;;;;8157153;29;20043;-85
2024/04/09 17:02:22;;;;;;;0.70;0.43;;;7.60;99.90;;;;;;8181900;29;20040;-87
2024/04/09 17:06:23;;;;;;;1.95;0.43;;;7.40;99.90;;;;;;8177140;29;20039;-87
2024/04/09 17:10:23;;;;;;;0.60;0.60;;;7.50;99.90;;;;;;8179912;28;20066;-87
2024/04/09 17:14:26;;;;;;;0.15;0.15;;;7.40;99.90;;;;;;8184232;29;20078;-86
2024/04/09 17:18:26;;;;;;;0.10;0.10;;;7.20;99.90;;;;;;8155979;29;20037;-86
2024/04/09 17:22:29;;;;;;;0.47;0.25;;;7.10;99.90;;;;;;8169706;29;20588;-86
2024/04/09 17:26:29;;;;;;;0.98;0.52;;;7.10;99.90;;;;;;8160686;29;20087;-87
2024/04/09 17:30:34;;;;;;;1.15;0.60;;;7.10;99.90;;;;;;8151803;29;20119;-85
2024/04/09 17:34:42;;;;;;;0.80;0.40;;;7.00;99.90;;;;;;8174652;29;20513;-84
2024/04/09 17:38:56;;;;;;;0.40;0.30;;;6.90;99.90;;;;;;8190681;28;20040;-86
2024/04/09 17:42:58;;;;;;;0.73;0.30;;;6.80;99.90;;;;;;8162699;29;20505;-86
2024/04/09 17:47:23;;;;;;;0.30;0.30;;;6.70;99.90;;;;;;8170096;29;20130;-86
2024/04/09 17:51:32;;;;;;;0.30;0.30;;;6.60;99.90;;;;;;8184327;29;20057;-87
2024/04/09 17:56:22;;;;;;;0.55;0.40;;;6.60;99.90;;;;;;8165066;29;20043;-87
2024/04/09 18:00:22;;;;;;;1.13;0.50;;;6.70;99.90;;;;;;8144107;29;20047;-86
2024/04/09 18:04:28;;;;;;;0.57;0.30;;;6.80;99.90;;;;;;8168701;29;20046;-89
2024/04/09 18:09:28;;;;;;;0.52;0.30;;;6.80;99.90;;;;;;8152987;29;20043;-88
2024/04/09 18:13:35;;;;;;;0.90;0.20;;;6.50;99.90;;;;;;8070243;29;20224;-87
2024/04/09 18:17:42;;;;;;;0.20;0.20;;;6.50;99.90;;;;;;8121693;29;20040;-88
2024/04/09 18:21:46;;;;;;;0.93;0.30;;;6.40;99.90;;;;;;8175365;29;20068;-88
2024/04/09 18:26:19;;;;;;;0.65;0.50;;;6.50;99.90;;;;;;8173882;29;20118;-88
2024/04/09 18:30:26;;;;;;;1.58;0.47;;;6.50;99.90;;;;;;8147606;29;20411;-88
2024/04/09 18:34:40;;;;;;;0.43;0.30;;;6.30;99.90;;;;;;8177142;29;20043;-88
2024/04/09 18:38:41;;;;;;;0.10;0.10;;;6.40;99.90;;;;;;8153246;29;20781;-89
2024/04/09 18:42:47;;;;;;;0.30;0.30;;;6.40;99.90;;;;;;8165270;29;20035;-89
2024/04/09 18:46:54;;;;;;;0.10;0.10;;;6.40;99.90;;;;;;8150348;29;20044;-90
2024/04/09 18:50:55;;;;;;;0.63;0.32;;;6.40;99.90;;;;;;8180797;29;20412;-88
2024/04/09 18:54:59;;;;;;;0.45;0.40;;;6.40;99.90;;;;;;8157106;29;20035;-89
2024/04/09 18:59:03;;;;;;;0.17;0.08;;;6.30;99.90;;;;;;8174209;29;20051;-89
2024/04/09 19:03:07;;;;;;;0.40;0.30;;;6.20;99.90;;;;;;8153054;29;20048;-87
2024/04/09 19:07:08;;;;;;;0.30;0.30;;;6.10;99.90;;;;;;8154358;28;21694;-88
2024/04/09 19:11:09;;;;;;;0.30;0.30;;;6.10;99.90;;;;;;8174705;28;20038;-85
2024/04/09 19:15:10;;;;;;;0.30;0.30;;;6.00;99.90;;;;;;8179502;29;20036;-89
2024/04/09 19:19:13;;;;;;;0.45;0.30;;;5.80;99.90;;;;;;8181321;28;20051;-87
2024/04/09 19:23:14;;;;;;;0.40;0.40;;;5.80;99.90;;;;;;8146395;29;20131;-87
2024/04/09 19:27:14;;;;;;;0.57;0.57;;;5.80;99.90;;;;;;8149237;29;20032;-86
2024/04/09 19:31:21;;;;;;;0.60;0.45;;;5.90;99.90;;;;;;8172302;29;20710;-88
2024/04/09 19:35:22;;;;;;;0.85;0.65;;;6.00;99.90;;;;;;8158197;29;20095;-87
2024/04/09 19:39:26;;;;;;;0.75;0.47;;;5.90;99.90;;;;;;8176118;29;20382;-88
2024/04/09 19:43:30;;;;;;;1.02;0.60;;;5.80;99.90;;;;;;8174673;29;20092;-89
2024/04/09 19:47:30;;;;;;;0.95;0.80;;;5.80;99.90;;;;;;8182518;29;20027;-88
2024/04/09 19:51:43;;;;;;;0.98;0.60;;;5.90;99.90;;;;;;8161856;29;20032;-88
2024/04/09 19:55:51;;;;;;;1.73;1.00;;;5.40;99.90;;;;;;8154434;29;20047;-88
2024/04/09 20:00:14;;;;;;;1.35;0.85;;;5.90;99.90;;;;;;8171432;29;20099;-88
2024/04/09 20:04:20;;;;;;;1.13;0.95;;;5.90;99.90;;;;;;8166743;29;20050;-87
2024/04/09 20:08:20;;;;;;;1.63;1.02;;;6.10;99.90;;;;;;8156892;29;20035;-87
2024/04/09 20:12:22;;;;;;;1.05;0.88;;;6.00;99.90;;;;;;8153871;29;20043;-87
2024/04/09 20:16:42;;;;;;;2.53;1.13;;;5.90;99.90;;;;;;8167133;29;20088;-87
2024/04/09 20:20:45;;;;;;;1.75;1.17;;;5.60;99.90;;;;;;8172400;28;20086;-86
2024/04/09 20:25:48;;;;;;;1.10;0.93;;;5.80;99.90;;;;;;8156263;29;20060;-87
2024/04/09 20:30:11;;;;;;;;;;;;;;;;;;;;;
2024/04/09 20:39:34;;;;;;;1.17;0.95;;;5.70;99.90;;;;;;8172721;29;20123;-86
2024/04/09 20:50:18;;;;;;;;;;;;;;;;;;;;;
2024/04/09 20:54:13;;;;;;;2.55;1.00;;;5.90;99.90;;;;;;8128544;29;20144;-89
2024/04/09 20:58:14;;;;;;;1.77;1.00;;;5.90;99.90;;;;;;8175105;29;20040;-86
2024/04/09 21:07:52;;;;;;;2.28;1.00;;;6.40;99.90;;;;;;8176526;29;20051;-87
2024/04/09 21:11:37;;;;;;;1.17;0.90;;;5.90;99.90;;;;;;8167318;29;20047;-87
2024/04/09 21:17:18;;;;;;;2.72;1.10;;;5.90;99.90;;;;;;8160687;29;20063;-86
2024/04/09 21:31:22;;;;;;;1.85;0.90;;;5.70;99.90;;;;;;8116909;29;20036;-86
2024/04/09 21:35:44;;;;;;;0.95;0.80;;;5.90;99.90;;;;;;8111864;29;20027;-85
2024/04/09 21:40:33;;;;;;;1.00;0.90;;;5.90;99.90;;;;;;8137096;29;20043;-86
2024/04/09 21:44:42;;;;;;;1.40;0.70;;;5.90;99.90;;;;;;8153741;29;20401;-85
2024/04/09 21:48:47;;;;;;;1.65;0.70;;;5.80;99.90;;;;;;8176275;29;20039;-85
2024/04/09 21:53:49;;;;;;;3.90;0.85;;;5.70;99.90;;;;;;8169031;29;20059;-85
2024/04/09 21:57:52;;;;;;;2.10;0.70;;;5.80;99.90;;;;;;8165962;29;20044;-85
2024/04/09 22:11:40;;;;;;;1.08;0.68;;;5.90;99.90;;;;;;8147596;29;20047;-86
2024/04/09 22:16:22;;;;;;;1.25;0.80;;;6.00;99.90;;;;;;8154740;28;20183;-85
2024/04/09 22:21:12;;;;;;;0.73;0.63;;;6.10;99.90;;;;;;8171902;29;20047;-84
2024/04/09 22:25:12;;;;;;;1.08;0.80;;;6.10;99.90;;;;;;8165837;29;20039;-85
2024/04/09 22:29:16;;;;;;;1.05;0.73;;;6.10;99.90;;;;;;8194025;28;20027;-86
2024/04/09 22:34:02;;;;;;;0.65;0.60;;;6.10;99.90;;;;;;8200790;29;20042;-87
2024/04/09 22:38:09;;;;;;;1.58;0.90;;;6.00;99.90;;;;;;8180290;29;20134;-84
2024/04/09 22:42:09;;;;;;;0.85;0.70;;;6.00;99.90;;;;;;8157259;29;20044;-85
2024/04/09 22:46:24;;;;;;;2.25;0.93;;;6.00;99.90;;;;;;8151513;29;20040;-85
2024/04/09 22:50:24;;;;;;;1.33;0.80;;;6.10;99.90;;;;;;8173759;29;20377;-85
2024/04/09 22:54:25;;;;;;;1.70;1.00;;;6.10;99.90;;;;;;8178050;29;20035;-86
2024/04/09 23:18:48;;;;;;;1.20;0.95;;;6.30;99.90;;;;;;8120361;29;20035;-87
2024/04/09 23:28:46;;;;;;;;;;;;;;;;;;;;;
2024/04/09 23:48:46;;;;;;;;;;;;;;;;;;;;;
